Aérodrome :
LOGIN :

S'inscrire | Disclaimer

   EN    FR    IT 

 










Légende :    VFR   VFR Marginal   IFR   IFR Intensif   IFR Très Intensif
Visi : 
Plafond : 
>= 8 km
>= 3000ft
5 à 8 km
1000 à 3000 ft
1500m à 5 km
500 à 1000 ft
800 à 1500m
200 à 500 ft
< 800m
< 200 ft
Symboles :   Orages  Brouillard  Fortes neiges  Fortes précipitations  Vent > 20 kt
SIGMETs :   Divers  Orages  Givrage  Turbulence  Onde Orograph.  Cendres Volcan.






- Altitude de l'aérodrome : 386 ft
- Code IATA : QOE


ETNN - Nörvenich Airforce Base

DERNIER METAR :
  • 091920Z 01004KT 9999 FEW120 SCT220 20/15 Q1012 BLU+

METARs EXPIRÉS :
  • 091820Z 34005KT 9999 BKN120 23/15 Q1012 BLU
  • 091720Z 33004KT 9999 BKN090 23/15 Q1012 BLU

TAF TAF ETNN
Valide du 09 à 14h jusqu'au 09 à 23h UTC


091311Z 0914/0923 29015G25KT 9999 NSW BKN040 BKN090
BECMG 0916/0918 33005KT 9999 NSW SCT015 BKN030 BKN060
BECMG 0920/0922 VRB03KT 5000 BR BKN015 BY ETGL



MET'MAP, la Météo Aéronautique d'un coup d'oeil ! - Copyright ORBIFLY Décembre 2007 - Disclaimer

ORBIFLY MET'MAP TEAM :

Programmation & Développement : Alexandra Zaïnal
Sur une idée originale de : Baudouin d'Aumeries
Assistance à la programmation : Marc-Olivier Méhu
Soutien technique & logistique : Manuel Goepfert

Contact : metmap@orbifly.com




SOURCES & CREDITS :

   NOAA